Los Angeles, CA

11:10 PM PDT on August 28, 2014 (GMT -0700)
Los Angeles International | Change Station
CLOSE
Current Station
Airport
Location: Los Angeles,
Elevation: 105 ft
Nearby Weather Stations
Active Advisory: High Surf Advisory

Elev 105 ft 33.94 °N, 118.39 °W | Updated 17 minutes ago

Clear
Clear
72 °F
Feels Like 72 °F
N
9
Wind Variable Wind from WSW

Today
High -- | Low -- °F
--% Chance of Precip.
Yesterday
High -- | Low -- °F
Precip. -- in
6:23 AM 7:23 PM
Waxing Crescent, 12% visible
Pressure 29.89 in
Visibility 10.0 miles
Clouds Clear
Dew Point 55 °F
Humidity 55%
Rainfall 0.00 in
Snow Depth Not available.
UV 0 out of 12
Pollen 7.80 out of 12
Ozone Good
Flu Activity Not available.
METAR KLAX 290553Z COR 24008KT 10SM CLR 22/13 A2990 RMK AO2 SLP122 T02220128 10278 20222 50007

More Conditions Fewer Conditions

Pressure 29.89 in
Visibility 10.0 miles
Clouds Clear
Dew Point 55 °F
Humidity 55%
Rainfall 0.00 in
Snow Depth Not available.
UV 0 out of 12
Pollen 7.80 out of 12
Ozone Good
Flu Activity Not available.
METAR KLAX 290553Z COR 24008KT 10SM CLR 22/13 A2990 RMK AO2 SLP122 T02220128 10278 20222 50007

More Conditions Fewer Conditions

10-Day Weather Forecast

Almanac

Astronomy

Aug. 28, 2014 Rise Set
Actual Time 6:23 AM PDT 7:23 PM PDT
Civil Twilight 5:58 AM PDT 7:49 PM PDT
Nautical Twilight 5:27 AM PDT 8:19 PM PDT
Astronomical Twilight 4:56 AM PDT 8:51 PM PDT
Moon 9:10 AM PDT (8/28) 9:01 PM PDT (8/28)
Length of Visible Light 13h 51m
Length of Day
12h 59m
Tomorrow will be 2m 0s shorter.
Waxing Crescent, 12% of the Moon is Illuminated
Aug 29
Waxing Crescent
Sep 2
First Quarter
Sep 8
Full
Sep 15
Last Quarter
Sep 24
New

Community

WunderPhotos

Upload Photos

1,748,197 photos uploaded!

Nearby

Air Quality

  Air Quality AQ Index Pollutant
Yesterday Good
OZONE
Current Good
OZONE
Friday Good
PM10
Friday Good
OZONE
Friday Good
CO
Friday Good
NO2

Snow Depth

Station Depth Elevation
Leavitt Lake 0 in 9400 ft
Leavitt Meadows 0 in 7200 ft
Blue Lakes 0 in 8000 ft
Monitor Pass 0 in 8350 ft
Forestdale Creek 0 in 8029 ft

Earthquake Activity

City Distance Mag. Time & Date
San Fernando, California 21 miles 2.5 4:57 AM PDT
2014-08-26
Minimum magnitude displayed is 2.5.

Coastal Water Temperatures

Place Temperature
Santa Monica Pier 69.1 °F
Los Angeles, CA 64.9 °F
La Jolla, CA 72.0 °F

Nearby Weather Stations